Time;durP1;ratioP1;P1;durP2;ratioP2;P2;SDS_P1;SDS_P2;PMS_P1;PMS_P2;Temp;Humidity;BMP_temperature;BMP_pressure;BME280_temperature;BME280_humidity;BME280_pressure;Samples;Min_cycle;Max_cycle;Signal;HPM_P1;HPM_P2
2021/01/20 00:01:40;;;;;;;1.70;1.27;;;6.20;95.90;;;;;;5054472;28;20566;-61
2021/01/20 00:04:07;;;;;;;1.73;1.23;;;6.20;95.90;;;;;;5054559;28;20283;-61
2021/01/20 00:06:33;;;;;;;1.30;0.90;;;6.20;96.00;;;;;;5054765;28;20205;-62
2021/01/20 00:08:59;;;;;;;1.00;0.90;;;6.20;96.00;;;;;;5054512;28;20202;-62
2021/01/20 00:11:26;;;;;;;1.50;0.93;;;6.20;96.30;;;;;;5054547;28;20288;-62
2021/01/20 00:13:53;;;;;;;1.43;0.93;;;6.00;96.50;;;;;;5054169;28;20579;-62
2021/01/20 00:16:20;;;;;;;1.40;1.00;;;6.00;96.80;;;;;;5054289;28;20304;-62
2021/01/20 00:18:46;;;;;;;1.47;0.97;;;5.90;97.00;;;;;;5054471;28;20228;-62
2021/01/20 00:21:13;;;;;;;0.60;0.60;;;6.00;97.00;;;;;;5054370;28;20201;-62
2021/01/20 00:23:39;;;;;;;0.70;0.70;;;6.10;97.10;;;;;;5054199;28;20202;-62
2021/01/20 00:26:05;;;;;;;1.10;1.00;;;6.00;97.10;;;;;;5053982;28;20242;-62
2021/01/20 00:28:31;;;;;;;1.27;0.93;;;6.10;97.20;;;;;;5054023;28;20201;-61
2021/01/20 00:30:57;;;;;;;0.77;0.70;;;6.10;97.20;;;;;;5054016;28;20209;-61
2021/01/20 00:33:24;;;;;;;1.00;0.73;;;6.10;97.20;;;;;;5054000;28;20233;-62
2021/01/20 00:35:50;;;;;;;2.23;0.77;;;6.20;97.20;;;;;;5054020;28;20230;-62
2021/01/20 00:38:18;;;;;;;0.70;0.70;;;6.10;97.60;;;;;;5054113;28;20582;-62
2021/01/20 00:40:44;;;;;;;1.13;0.70;;;6.20;97.60;;;;;;5053924;28;20205;-62
2021/01/20 00:43:10;;;;;;;1.70;1.20;;;6.30;97.60;;;;;;5053634;28;20201;-61
2021/01/20 00:45:36;;;;;;;1.20;0.80;;;6.40;97.50;;;;;;5054131;28;20287;-60
2021/01/20 00:48:02;;;;;;;1.13;0.87;;;6.40;97.40;;;;;;5053785;28;20700;-62
2021/01/20 00:50:29;;;;;;;1.00;0.73;;;6.60;97.30;;;;;;5053947;28;20208;-62
2021/01/20 00:52:55;;;;;;;2.23;1.00;;;6.70;97.10;;;;;;5053811;28;20205;-61
2021/01/20 00:55:22;;;;;;;2.10;1.60;;;6.70;97.10;;;;;;5053487;28;20241;-62
2021/01/20 00:57:48;;;;;;;0.87;0.80;;;6.60;97.40;;;;;;5053446;28;20598;-62
2021/01/20 01:00:15;;;;;;;0.77;0.70;;;6.60;97.50;;;;;;5053791;28;20229;-61
2021/01/20 01:02:41;;;;;;;1.23;0.90;;;6.50;97.50;;;;;;5053646;28;20267;-62
2021/01/20 01:05:08;;;;;;;0.67;0.60;;;6.60;97.40;;;;;;5053907;28;20230;-61
2021/01/20 01:07:34;;;;;;;1.20;0.87;;;6.70;97.50;;;;;;5052908;28;20328;-62
2021/01/20 01:10:01;;;;;;;1.03;0.93;;;6.70;97.40;;;;;;5053990;28;20212;-62
2021/01/20 01:12:28;;;;;;;1.93;1.13;;;6.70;97.50;;;;;;5053315;28;20206;-62
2021/01/20 01:14:54;;;;;;;1.00;0.90;;;6.60;97.60;;;;;;5053265;28;20771;-62
2021/01/20 01:17:20;;;;;;;1.10;0.83;;;6.50;97.90;;;;;;5053332;28;20206;-62
2021/01/20 01:19:46;;;;;;;1.10;0.80;;;6.40;98.00;;;;;;5053011;28;20205;-62
2021/01/20 01:22:13;;;;;;;3.03;1.23;;;6.50;98.20;;;;;;5053206;28;20217;-62
2021/01/20 01:24:39;;;;;;;2.00;1.27;;;6.40;98.30;;;;;;5052790;28;20235;-62
2021/01/20 01:27:06;;;;;;;1.90;1.00;;;6.40;98.50;;;;;;5053001;28;20316;-62
2021/01/20 01:29:33;;;;;;;1.03;0.80;;;6.40;98.50;;;;;;5052777;28;20212;-62
2021/01/20 01:31:59;;;;;;;2.10;1.10;;;6.40;98.50;;;;;;5053123;28;20212;-62
2021/01/20 01:34:25;;;;;;;1.93;1.67;;;6.40;98.50;;;;;;5052845;28;20252;-62
2021/01/20 01:36:51;;;;;;;1.27;0.93;;;6.50;98.50;;;;;;5053048;28;20205;-62
2021/01/20 01:39:17;;;;;;;1.70;1.10;;;6.60;98.40;;;;;;5053263;28;20218;-63
2021/01/20 01:41:44;;;;;;;1.33;0.93;;;6.50;98.50;;;;;;5053097;28;20214;-62
2021/01/20 01:44:10;;;;;;;1.10;0.90;;;6.60;98.40;;;;;;5053316;28;20221;-62
2021/01/20 01:46:37;;;;;;;1.00;0.87;;;6.60;98.40;;;;;;5053310;28;20267;-62
2021/01/20 01:49:04;;;;;;;1.50;0.90;;;6.60;98.50;;;;;;5052656;28;20236;-62
2021/01/20 01:51:30;;;;;;;1.93;0.80;;;6.60;98.70;;;;;;5052625;28;20559;-62
2021/01/20 01:53:56;;;;;;;1.90;1.10;;;6.70;98.60;;;;;;5052311;28;20222;-63
2021/01/20 01:56:24;;;;;;;1.03;0.90;;;6.80;98.40;;;;;;5053048;28;20299;-63
2021/01/20 01:58:51;;;;;;;1.07;0.90;;;6.80;98.30;;;;;;5052697;28;20217;-62
2021/01/20 02:01:18;;;;;;;1.23;1.00;;;6.60;98.60;;;;;;5052670;28;20645;-63
2021/01/20 02:03:48;;;;;;;1.50;1.00;;;6.70;98.60;;;;;;5052424;28;20206;-62
2021/01/20 02:06:14;;;;;;;1.13;1.00;;;6.80;98.60;;;;;;5052275;28;20576;-62
2021/01/20 02:08:41;;;;;;;1.17;1.00;;;6.80;98.70;;;;;;5052238;28;20205;-62
2021/01/20 02:11:22;;;;;;;0.87;0.60;;;6.80;98.60;;;;;;5052799;28;20213;-62
2021/01/20 02:13:59;;;;;;;0.70;0.70;;;6.90;98.50;;;;;;5052338;28;20225;-62
2021/01/20 02:16:28;;;;;;;1.30;0.90;;;6.80;98.50;;;;;;5052647;28;20209;-62
2021/01/20 02:18:58;;;;;;;1.33;1.00;;;6.80;98.70;;;;;;5051731;28;20214;-62
2021/01/20 02:22:10;;;;;;;1.47;1.00;;;6.80;98.70;;;;;;5052152;28;20205;-62
2021/01/20 02:24:47;;;;;;;1.17;0.80;;;6.90;98.60;;;;;;5051493;28;20279;-61
2021/01/20 02:27:24;;;;;;;2.83;0.83;;;6.80;98.60;;;;;;5051911;28;20292;-62
2021/01/20 02:30:07;;;;;;;1.00;0.70;;;6.90;98.50;;;;;;5051902;28;20209;-61
2021/01/20 02:32:36;;;;;;;1.17;0.80;;;7.00;98.30;;;;;;5051804;28;20205;-61
2021/01/20 02:35:04;;;;;;;1.00;0.83;;;7.00;98.30;;;;;;5051363;28;20729;-62
2021/01/20 02:37:32;;;;;;;1.40;0.80;;;7.00;98.20;;;;;;5051740;28;20205;-61
2021/01/20 02:39:59;;;;;;;1.67;0.80;;;7.00;98.10;;;;;;5051662;28;20236;-62
2021/01/20 02:42:25;;;;;;;1.13;0.90;;;7.00;98.10;;;;;;5051846;28;20202;-61
2021/01/20 02:44:51;;;;;;;1.10;0.97;;;7.00;98.00;;;;;;5051621;28;20233;-62
2021/01/20 02:47:18;;;;;;;1.23;1.00;;;7.00;97.90;;;;;;5051811;28;20264;-61
2021/01/20 02:49:45;;;;;;;1.03;0.93;;;7.00;97.80;;;;;;5051840;28;20209;-62
2021/01/20 02:52:20;;;;;;;1.00;0.90;;;7.00;97.90;;;;;;5051512;28;20206;-61
2021/01/20 02:54:48;;;;;;;1.17;0.80;;;6.90;98.00;;;;;;5051427;28;20229;-61
2021/01/20 02:57:15;;;;;;;3.30;1.00;;;6.90;98.00;;;;;;5051795;28;20205;-61
2021/01/20 02:59:45;;;;;;;1.37;1.00;;;6.90;98.00;;;;;;5051314;28;20202;-61
2021/01/20 03:02:13;;;;;;;1.10;1.00;;;7.00;98.00;;;;;;5051514;28;20209;-62
2021/01/20 03:04:46;;;;;;;1.30;1.03;;;6.90;97.90;;;;;;5051054;28;20720;-62
2021/01/20 03:07:14;;;;;;;1.33;0.97;;;6.90;97.90;;;;;;5051456;28;20194;-62
2021/01/20 03:09:40;;;;;;;2.13;1.30;;;7.00;97.90;;;;;;5051167;28;20206;-61
2021/01/20 03:12:07;;;;;;;1.67;1.30;;;6.90;97.90;;;;;;5051294;28;20213;-62
2021/01/20 03:14:34;;;;;;;1.90;1.20;;;6.90;98.00;;;;;;5050850;28;20236;-62
2021/01/20 03:17:00;;;;;;;1.50;1.10;;;6.90;98.00;;;;;;5051203;28;20233;-62
2021/01/20 03:19:26;;;;;;;2.87;1.50;;;6.90;98.00;;;;;;5050793;28;20206;-61
2021/01/20 03:21:53;;;;;;;1.40;1.30;;;6.90;98.10;;;;;;5051464;28;20491;-61
2021/01/20 03:24:19;;;;;;;1.20;1.10;;;6.90;98.10;;;;;;5051656;28;20255;-62
2021/01/20 03:26:46;;;;;;;2.70;1.30;;;6.90;98.20;;;;;;5051864;28;20232;-62
2021/01/20 03:29:12;;;;;;;1.30;1.10;;;7.00;98.20;;;;;;5050864;28;20210;-62
2021/01/20 03:31:38;;;;;;;2.17;1.30;;;7.00;98.20;;;;;;5051997;28;20704;-62
2021/01/20 03:34:04;;;;;;;1.87;1.60;;;7.00;98.30;;;;;;5051661;28;20229;-62
2021/01/20 03:36:31;;;;;;;2.37;1.57;;;6.90;98.30;;;;;;5051892;28;20205;-62
2021/01/20 03:38:58;;;;;;;1.40;1.30;;;6.80;98.40;;;;;;5051821;28;20720;-62
2021/01/20 03:41:24;;;;;;;1.93;1.53;;;6.80;98.40;;;;;;5052313;28;20205;-61
2021/01/20 03:43:50;;;;;;;2.57;1.37;;;6.80;98.50;;;;;;5051808;28;20206;-62
2021/01/20 03:46:16;;;;;;;2.00;1.60;;;6.60;98.70;;;;;;5051954;28;20216;-62
2021/01/20 03:48:42;;;;;;;0.80;0.80;;;6.60;98.80;;;;;;5051987;28;20209;-62
2021/01/20 03:51:08;;;;;;;0.70;0.60;;;6.60;98.80;;;;;;5052343;28;20212;-62
2021/01/20 03:53:35;;;;;;;1.50;0.90;;;6.50;98.90;;;;;;5051760;28;20241;-62
2021/01/20 03:56:02;;;;;;;1.97;1.07;;;6.30;99.20;;;;;;5051736;28;20233;-62
2021/01/20 03:58:28;;;;;;;0.90;0.67;;;6.20;99.30;;;;;;5051372;28;20205;-62
2021/01/20 04:00:54;;;;;;;1.00;0.73;;;6.30;99.30;;;;;;5051383;28;20201;-64
2021/01/20 04:03:20;;;;;;;0.87;0.70;;;6.40;99.20;;;;;;5050922;28;20217;-62
2021/01/20 04:05:46;;;;;;;1.47;0.90;;;6.40;99.20;;;;;;5051232;28;20774;-62
2021/01/20 04:08:12;;;;;;;1.63;0.90;;;6.30;99.50;;;;;;5053174;28;20658;-62
2021/01/20 04:10:39;;;;;;;1.10;0.60;;;6.40;99.40;;;;;;5052655;28;20611;-62
2021/01/20 04:13:06;;;;;;;1.40;1.00;;;6.50;99.30;;;;;;5051744;28;20205;-62
2021/01/20 04:15:32;;;;;;;1.50;1.00;;;6.50;99.30;;;;;;5051429;28;20618;-63
2021/01/20 04:17:58;;;;;;;1.13;0.80;;;6.40;99.20;;;;;;5051627;28;20248;-62
2021/01/20 04:20:25;;;;;;;1.07;0.90;;;6.50;99.30;;;;;;5052329;28;20210;-62
2021/01/20 04:22:51;;;;;;;1.10;1.00;;;6.50;99.20;;;;;;5051996;28;20308;-62
2021/01/20 04:25:17;;;;;;;1.40;1.00;;;6.50;99.10;;;;;;5052516;28;20606;-62
2021/01/20 04:27:44;;;;;;;0.80;0.80;;;6.50;99.00;;;;;;5052680;28;20220;-62
2021/01/20 04:30:12;;;;;;;3.90;1.70;;;6.50;99.00;;;;;;5052516;28;20228;-61
2021/01/20 04:32:38;;;;;;;1.77;1.20;;;6.40;99.20;;;;;;5052313;28;20210;-62
2021/01/20 04:35:06;;;;;;;1.80;1.20;;;6.40;99.20;;;;;;5053006;28;20238;-62
2021/01/20 04:37:32;;;;;;;2.20;1.63;;;6.50;99.20;;;;;;5053138;28;20496;-61
2021/01/20 04:39:58;;;;;;;2.83;1.30;;;6.60;99.00;;;;;;5052979;28;20214;-61
2021/01/20 04:42:24;;;;;;;1.20;0.90;;;6.50;99.00;;;;;;5054887;28;20210;-61
2021/01/20 04:44:51;;;;;;;1.00;0.90;;;6.50;99.00;;;;;;5056207;28;20229;-62
2021/01/20 04:47:20;;;;;;;1.20;0.90;;;6.50;99.00;;;;;;5056031;28;20209;-61
2021/01/20 04:49:50;;;;;;;1.43;1.10;;;6.50;99.20;;;;;;5055311;28;20677;-62
2021/01/20 04:52:19;;;;;;;0.90;0.67;;;6.60;98.90;;;;;;5054986;28;20237;-62
2021/01/20 04:54:46;;;;;;;1.43;0.80;;;6.50;99.00;;;;;;5054788;28;20225;-61
2021/01/20 04:57:13;;;;;;;0.60;0.57;;;6.50;99.00;;;;;;5054586;28;20212;-62
2021/01/20 04:59:41;;;;;;;1.30;0.90;;;6.70;98.80;;;;;;5054642;28;20209;-62
2021/01/20 05:02:09;;;;;;;1.83;1.10;;;6.70;98.70;;;;;;5054622;28;20296;-62
2021/01/20 05:04:38;;;;;;;1.17;0.80;;;6.60;98.60;;;;;;5054852;28;20233;-61
2021/01/20 05:07:06;;;;;;;2.17;1.60;;;6.60;98.90;;;;;;5054679;28;20217;-62
2021/01/20 05:09:32;;;;;;;1.87;0.97;;;6.60;98.90;;;;;;5054737;28;20209;-62
2021/01/20 05:11:58;;;;;;;1.20;1.00;;;6.60;98.90;;;;;;5054941;28;20704;-62
2021/01/20 05:14:24;;;;;;;1.47;1.00;;;6.60;98.80;;;;;;5054697;28;20233;-62
2021/01/20 05:16:52;;;;;;;1.23;1.00;;;6.60;98.80;;;;;;5054915;28;20210;-62
2021/01/20 05:19:34;;;;;;;1.23;0.90;;;6.60;98.80;;;;;;5054778;28;20572;-62
2021/01/20 05:22:05;;;;;;;1.03;0.80;;;6.60;98.70;;;;;;5054713;28;20210;-62
2021/01/20 05:24:33;;;;;;;1.37;1.10;;;6.60;98.60;;;;;;5054191;28;20237;-62
2021/01/20 05:26:59;;;;;;;1.37;1.00;;;6.50;98.50;;;;;;5054618;28;20582;-62
2021/01/20 05:29:25;;;;;;;1.97;1.17;;;6.60;98.40;;;;;;5054256;28;20206;-62
2021/01/20 05:31:51;;;;;;;1.60;1.10;;;6.60;98.40;;;;;;5054900;28;20206;-62
2021/01/20 05:34:26;;;;;;;1.67;1.20;;;6.60;98.30;;;;;;5054527;28;20256;-63
2021/01/20 05:37:07;;;;;;;1.47;0.93;;;6.50;98.40;;;;;;5055016;28;20205;-61
2021/01/20 05:39:35;;;;;;;1.80;1.20;;;6.50;98.50;;;;;;5055076;28;20267;-61
2021/01/20 05:42:07;;;;;;;1.47;1.10;;;6.50;98.30;;;;;;5055472;28;20209;-62
2021/01/20 05:44:33;;;;;;;1.40;0.90;;;6.60;98.30;;;;;;5057481;28;20232;-61
2021/01/20 05:47:07;;;;;;;2.23;1.60;;;6.80;98.20;;;;;;5053641;28;20273;-61
2021/01/20 05:49:33;;;;;;;1.57;1.03;;;6.80;97.90;;;;;;5053476;28;20741;-62
2021/01/20 05:52:00;;;;;;;1.40;1.20;;;7.00;97.70;;;;;;5053079;28;20330;-62
2021/01/20 05:54:32;;;;;;;3.33;1.83;;;7.10;97.40;;;;;;5053250;28;20240;-62
2021/01/20 05:57:15;;;;;;;1.53;1.07;;;7.00;97.50;;;;;;5053925;28;20587;-62
2021/01/20 05:59:42;;;;;;;1.43;1.20;;;7.10;97.30;;;;;;5053726;28;20210;-62
2021/01/20 06:02:10;;;;;;;1.87;1.20;;;7.20;97.40;;;;;;5053713;28;20217;-62
2021/01/20 06:04:37;;;;;;;1.30;1.20;;;7.30;97.10;;;;;;5053170;28;20256;-62
2021/01/20 06:07:08;;;;;;;2.10;1.33;;;7.30;97.10;;;;;;5053779;28;20213;-63
2021/01/20 06:09:37;;;;;;;1.73;1.20;;;7.40;97.00;;;;;;5054186;28;20205;-62
2021/01/20 06:12:04;;;;;;;0.70;0.70;;;7.50;96.80;;;;;;5054374;28;20216;-61
2021/01/20 06:14:31;;;;;;;1.43;1.10;;;7.50;96.60;;;;;;5054661;28;20232;-62
2021/01/20 06:17:03;;;;;;;2.37;1.50;;;7.40;96.50;;;;;;5054755;28;20212;-61
2021/01/20 06:19:32;;;;;;;2.73;1.20;;;7.30;96.60;;;;;;5054217;28;20476;-61
2021/01/20 06:22:00;;;;;;;2.07;1.30;;;7.50;96.40;;;;;;5053805;28;20214;-61
2021/01/20 06:24:33;;;;;;;2.50;1.50;;;7.60;96.20;;;;;;5053476;28;20638;-61
2021/01/20 06:27:11;;;;;;;2.33;1.63;;;7.60;96.00;;;;;;5052705;28;20201;-61
2021/01/20 06:29:42;;;;;;;3.00;1.40;;;7.60;95.90;;;;;;5055592;28;20579;-61
2021/01/20 06:32:10;;;;;;;2.80;1.90;;;7.80;95.60;;;;;;5055487;28;20220;-62
2021/01/20 06:34:36;;;;;;;1.57;1.00;;;7.80;95.50;;;;;;5054073;28;20240;-61
2021/01/20 06:37:02;;;;;;;2.17;1.27;;;7.90;95.20;;;;;;5054903;28;20209;-62
2021/01/20 06:39:35;;;;;;;1.97;1.40;;;7.80;95.10;;;;;;5054467;28;20210;-62
2021/01/20 06:42:03;;;;;;;2.90;1.40;;;7.80;95.10;;;;;;5055243;28;20206;-62
2021/01/20 06:44:29;;;;;;;3.00;1.73;;;7.80;94.80;;;;;;5054956;28;20253;-62
2021/01/20 06:47:00;;;;;;;2.20;1.63;;;7.90;94.90;;;;;;5055374;28;20206;-62
2021/01/20 06:49:28;;;;;;;1.50;1.17;;;7.90;94.60;;;;;;5055572;28;20262;-62
2021/01/20 06:52:08;;;;;;;2.37;1.53;;;7.80;94.50;;;;;;5056090;28;20210;-62
2021/01/20 06:54:36;;;;;;;1.70;1.00;;;8.00;94.40;;;;;;5056514;28;20233;-62
2021/01/20 06:57:03;;;;;;;1.40;1.00;;;8.10;94.20;;;;;;5055128;28;20201;-62
2021/01/20 06:59:30;;;;;;;1.70;1.30;;;8.10;94.00;;;;;;5054270;28;20206;-62
2021/01/20 07:02:15;;;;;;;2.43;1.60;;;8.20;94.00;;;;;;5054287;28;20292;-63
2021/01/20 07:04:54;;;;;;;3.00;1.70;;;8.30;93.70;;;;;;5053347;28;20221;-62
2021/01/20 07:08:00;;;;;;;2.17;1.60;;;8.50;93.50;;;;;;5053571;28;20581;-62
2021/01/20 07:10:29;;;;;;;3.47;0.90;;;8.60;93.30;;;;;;5053962;28;20209;-62
2021/01/20 07:13:19;;;;;;;2.80;1.17;;;8.60;93.10;;;;;;5053516;28;20210;-62
2021/01/20 07:15:54;;;;;;;1.73;1.30;;;8.60;92.90;;;;;;5052432;28;20298;-62
2021/01/20 07:18:23;;;;;;;1.87;1.17;;;8.80;92.80;;;;;;5052474;28;20775;-63
2021/01/20 07:20:50;;;;;;;1.87;1.33;;;8.70;92.60;;;;;;5052487;28;20212;-63
2021/01/20 07:23:17;;;;;;;3.57;2.00;;;8.80;92.60;;;;;;5052404;28;20209;-60
2021/01/20 07:25:48;;;;;;;2.00;1.40;;;8.90;92.40;;;;;;5050794;28;20234;-60
2021/01/20 07:28:15;;;;;;;2.85;1.58;;;8.90;92.40;;;;;;5053116;28;20468;-61
2021/01/20 07:30:41;;;;;;;2.63;1.50;;;9.00;92.40;;;;;;5072165;28;20664;-62
2021/01/20 07:33:18;;;;;;;2.67;1.70;;;9.00;92.00;;;;;;5072594;28;20220;-63
2021/01/20 07:35:44;;;;;;;2.37;1.30;;;9.10;92.00;;;;;;5072943;28;20614;-63
2021/01/20 07:38:11;;;;;;;5.23;3.10;;;9.10;92.00;;;;;;5071591;28;20228;-63
2021/01/20 07:40:39;;;;;;;1.83;1.47;;;9.00;91.90;;;;;;5070707;28;20205;-62
2021/01/20 07:43:05;;;;;;;2.00;1.13;;;9.10;91.80;;;;;;5071340;28;20226;-62
2021/01/20 07:45:34;;;;;;;2.27;1.40;;;9.10;91.80;;;;;;5071078;28;20217;-60
2021/01/20 07:48:01;;;;;;;2.10;1.30;;;9.10;91.60;;;;;;5071127;28;20208;-61
2021/01/20 07:50:47;;;;;;;4.07;1.40;;;9.10;91.80;;;;;;5071698;28;20215;-63
2021/01/20 07:53:15;;;;;;;1.63;1.30;;;9.10;91.60;;;;;;5071689;28;20204;-60
2021/01/20 07:55:42;;;;;;;1.60;1.23;;;9.20;91.50;;;;;;5071972;28;20395;-65
2021/01/20 07:58:09;;;;;;;3.10;1.83;;;9.40;91.30;;;;;;5071531;28;20213;-61
2021/01/20 08:00:47;;;;;;;2.50;1.17;;;9.40;91.20;;;;;;5071484;28;20216;-61
2021/01/20 08:03:13;;;;;;;2.43;1.37;;;9.60;91.10;;;;;;5070946;28;20688;-61
2021/01/20 08:05:42;;;;;;;0.90;0.73;;;9.70;90.80;;;;;;5070904;28;20240;-61
2021/01/20 08:08:10;;;;;;;2.50;1.17;;;9.90;90.70;;;;;;5070482;28;20201;-62
2021/01/20 08:10:37;;;;;;;1.47;1.10;;;10.10;90.20;;;;;;5071149;28;20208;-62
2021/01/20 08:13:04;;;;;;;2.07;1.33;;;10.10;90.00;;;;;;5071796;28;20201;-62
2021/01/20 08:15:32;;;;;;;2.20;1.17;;;10.10;90.20;;;;;;5072661;28;20727;-64
2021/01/20 08:18:00;;;;;;;3.73;1.30;;;10.10;90.20;;;;;;5075121;28;20235;-61
2021/01/20 08:20:32;;;;;;;3.10;1.37;;;10.10;90.20;;;;;;5075030;28;20201;-61
2021/01/20 08:22:59;;;;;;;3.43;1.80;;;10.10;90.00;;;;;;5075300;28;20205;-60
2021/01/20 08:25:25;;;;;;;2.67;0.90;;;10.30;90.00;;;;;;5073963;28;20237;-61
2021/01/20 08:27:51;;;;;;;1.77;1.20;;;10.30;89.80;;;;;;5073899;28;20676;-60
2021/01/20 08:30:32;;;;;;;9.27;6.07;;;10.50;89.50;;;;;;5073898;28;20745;-60
2021/01/20 08:33:00;;;;;;;2.07;1.37;;;10.60;88.70;;;;;;5074428;28;20209;-60
2021/01/20 08:35:29;;;;;;;2.53;1.60;;;10.80;89.00;;;;;;5074029;28;20301;-61
2021/01/20 08:37:55;;;;;;;4.53;2.53;;;10.90;87.70;;;;;;5074130;28;20266;-61
2021/01/20 08:40:21;;;;;;;4.70;1.90;;;11.00;87.50;;;;;;5073555;28;20208;-60
2021/01/20 08:42:48;;;;;;;1.23;1.10;;;11.10;87.30;;;;;;5074039;28;20201;-60
2021/01/20 08:45:16;;;;;;;2.47;1.40;;;11.10;87.20;;;;;;5074291;28;20715;-61
2021/01/20 08:47:50;;;;;;;3.73;1.47;;;11.10;86.90;;;;;;5074284;28;20208;-61
2021/01/20 08:50:19;;;;;;;2.13;1.30;;;11.00;86.60;;;;;;5073798;28;20295;-62
2021/01/20 08:52:47;;;;;;;2.07;1.43;;;11.10;86.60;;;;;;5073568;28;20201;-61
2021/01/20 08:55:21;;;;;;;3.37;1.40;;;11.20;86.60;;;;;;5073567;28;20232;-60
2021/01/20 08:57:48;;;;;;;2.43;1.73;;;11.20;86.00;;;;;;5073411;28;20629;-60
2021/01/20 09:00:15;;;;;;;3.03;2.13;;;11.30;85.80;;;;;;5073522;28;20209;-60
2021/01/20 09:02:41;;;;;;;3.80;1.57;;;11.40;85.70;;;;;;5073543;28;20592;-61
2021/01/20 09:05:08;;;;;;;1.73;1.37;;;11.30;85.20;;;;;;5073279;28;20650;-62
2021/01/20 09:07:35;;;;;;;2.43;1.90;;;11.40;85.00;;;;;;5073736;28;20205;-59
2021/01/20 09:10:02;;;;;;;3.37;1.63;;;11.50;85.10;;;;;;5073428;28;20611;-61
2021/01/20 09:12:28;;;;;;;3.17;1.30;;;11.60;84.50;;;;;;5073690;28;20212;-61
2021/01/20 09:14:54;;;;;;;2.20;1.60;;;11.70;84.30;;;;;;5073049;28;20220;-61
2021/01/20 09:17:20;;;;;;;2.70;1.33;;;11.70;84.20;;;;;;5073327;28;20205;-61
2021/01/20 09:19:46;;;;;;;2.03;1.60;;;11.80;84.20;;;;;;5073051;28;20209;-61
2021/01/20 09:22:12;;;;;;;4.30;2.30;;;11.90;84.30;;;;;;5073557;28;20204;-60
2021/01/20 09:24:39;;;;;;;2.73;1.67;;;11.90;83.60;;;;;;5073388;28;20235;-64
2021/01/20 09:27:06;;;;;;;2.70;1.37;;;11.90;83.30;;;;;;5072358;28;20695;-63
2021/01/20 09:29:32;;;;;;;2.87;1.83;;;11.90;83.40;;;;;;5072858;28;20209;-62
2021/01/20 09:31:58;;;;;;;2.83;1.80;;;12.00;82.70;;;;;;5073388;28;20228;-62
2021/01/20 09:34:24;;;;;;;2.40;1.27;;;11.90;82.40;;;;;;5072734;28;20221;-62
2021/01/20 09:36:50;;;;;;;1.97;1.20;;;11.90;82.70;;;;;;5072557;28;20613;-63
2021/01/20 09:39:16;;;;;;;5.20;3.90;;;11.80;82.70;;;;;;5072784;28;20212;-63
2021/01/20 09:41:43;;;;;;;1.67;1.37;;;11.80;82.10;;;;;;5072650;28;20584;-63
2021/01/20 09:44:10;;;;;;;3.07;1.80;;;11.90;81.90;;;;;;5072752;28;20232;-64
2021/01/20 09:46:36;;;;;;;2.77;1.50;;;12.00;81.70;;;;;;5072880;28;20212;-63
2021/01/20 09:49:02;;;;;;;2.67;1.37;;;11.80;81.80;;;;;;5072499;28;20219;-63
2021/01/20 09:51:30;;;;;;;3.77;1.50;;;11.90;81.50;;;;;;5072421;28;20553;-61
2021/01/20 09:53:56;;;;;;;2.70;1.17;;;12.00;81.10;;;;;;5072176;28;20658;-62
2021/01/20 09:56:22;;;;;;;2.80;1.53;;;12.20;80.90;;;;;;5072731;28;20239;-62
2021/01/20 09:58:49;;;;;;;4.00;2.00;;;12.20;81.00;;;;;;5072304;28;20565;-62
2021/01/20 10:01:15;;;;;;;3.57;2.70;;;12.20;81.00;;;;;;5072573;28;20209;-62
2021/01/20 10:03:41;;;;;;;5.03;3.90;;;12.30;81.80;;;;;;5072036;28;20204;-63
2021/01/20 10:06:08;;;;;;;3.10;2.50;;;12.30;82.30;;;;;;5072073;28;20228;-64
2021/01/20 10:08:34;;;;;;;5.83;3.40;;;12.20;82.90;;;;;;5072291;28;20205;-63
2021/01/20 10:11:00;;;;;;;3.70;2.73;;;12.10;82.50;;;;;;5072038;28;20699;-63
2021/01/20 10:13:26;;;;;;;3.70;2.50;;;12.10;82.80;;;;;;5072089;28;20395;-64
2021/01/20 10:15:53;;;;;;;4.17;2.80;;;12.00;83.30;;;;;;5071966;28;20240;-64
2021/01/20 10:18:19;;;;;;;4.20;2.70;;;12.00;82.70;;;;;;5071920;28;20258;-64
2021/01/20 10:20:50;;;;;;;4.80;3.20;;;12.00;82.80;;;;;;5072259;28;20201;-64
2021/01/20 10:23:16;;;;;;;5.30;3.37;;;12.00;83.10;;;;;;5072085;28;20205;-63
2021/01/20 10:25:45;;;;;;;6.07;3.70;;;12.00;83.10;;;;;;5071611;28;20228;-64
2021/01/20 10:28:11;;;;;;;5.53;3.60;;;12.00;83.70;;;;;;5072133;28;20308;-64
2021/01/20 10:30:38;;;;;;;4.97;3.17;;;12.00;83.80;;;;;;5072022;28;20592;-63
2021/01/20 10:33:05;;;;;;;4.10;2.53;;;12.10;83.30;;;;;;5072107;28;20215;-64
2021/01/20 10:35:31;;;;;;;3.57;2.07;;;12.00;83.10;;;;;;5071906;28;20279;-63
2021/01/20 10:37:57;;;;;;;4.40;2.23;;;12.00;82.80;;;;;;5071851;28;20205;-63
2021/01/20 10:40:24;;;;;;;4.67;2.20;;;11.90;82.00;;;;;;5071844;28;20209;-63
2021/01/20 10:42:50;;;;;;;4.53;1.80;;;11.80;81.80;;;;;;5071451;28;20212;-63
2021/01/20 10:45:17;;;;;;;3.90;1.90;;;11.80;82.40;;;;;;5071056;28;20231;-63
2021/01/20 10:47:43;;;;;;;4.23;2.00;;;11.80;81.30;;;;;;5071704;28;20209;-64
2021/01/20 10:50:11;;;;;;;2.40;1.60;;;11.80;81.60;;;;;;5071691;28;20262;-63
2021/01/20 10:52:37;;;;;;;6.63;1.70;;;11.70;81.50;;;;;;5071484;28;20648;-62
2021/01/20 10:55:04;;;;;;;6.60;3.00;;;11.70;81.50;;;;;;5070548;28;20478;-62
2021/01/20 10:57:30;;;;;;;4.20;1.87;;;11.80;82.30;;;;;;5072311;28;20254;-62
2021/01/20 10:59:57;;;;;;;2.87;2.00;;;11.80;81.60;;;;;;5072361;28;20205;-62
2021/01/20 11:02:23;;;;;;;2.23;1.60;;;11.80;80.50;;;;;;5072601;28;20271;-62
2021/01/20 11:04:50;;;;;;;3.00;1.70;;;11.60;81.10;;;;;;5072249;28;20240;-62
2021/01/20 11:07:17;;;;;;;2.23;1.63;;;11.70;80.40;;;;;;5072773;28;20209;-62
2021/01/20 11:09:44;;;;;;;3.83;1.83;;;11.80;80.30;;;;;;5071945;28;20287;-62
2021/01/20 11:12:10;;;;;;;3.00;1.77;;;11.80;80.40;;;;;;5073009;28;20219;-61
2021/01/20 11:14:36;;;;;;;3.17;1.47;;;11.70;80.50;;;;;;5072700;28;20269;-61
2021/01/20 11:17:02;;;;;;;2.47;1.50;;;11.70;80.50;;;;;;5072944;28;20201;-61
2021/01/20 11:19:29;;;;;;;3.43;2.00;;;11.70;80.80;;;;;;5072046;28;20586;-62
2021/01/20 11:21:55;;;;;;;4.07;2.00;;;11.80;79.70;;;;;;5072732;28;20299;-62
2021/01/20 11:24:22;;;;;;;2.77;1.63;;;12.00;79.70;;;;;;5072449;28;20720;-62
2021/01/20 11:26:49;;;;;;;2.20;1.80;;;12.00;78.80;;;;;;5072386;28;20205;-61
2021/01/20 11:29:15;;;;;;;1.97;1.60;;;12.20;79.20;;;;;;5071687;28;20258;-62
2021/01/20 11:31:41;;;;;;;2.37;1.63;;;12.40;79.40;;;;;;5072057;28;20205;-62
2021/01/20 11:34:07;;;;;;;3.83;1.80;;;12.60;78.20;;;;;;5071863;28;20700;-62
2021/01/20 11:36:34;;;;;;;4.30;1.70;;;12.80;77.40;;;;;;5071999;28;20212;-63
2021/01/20 11:39:00;;;;;;;1.63;1.30;;;12.90;76.90;;;;;;5072274;28;20358;-62
2021/01/20 11:41:27;;;;;;;2.10;1.40;;;13.00;76.30;;;;;;5071941;28;20231;-63
2021/01/20 11:43:53;;;;;;;3.53;1.80;;;13.10;75.70;;;;;;5072072;28;20205;-62
2021/01/20 11:46:20;;;;;;;3.40;1.50;;;13.10;76.10;;;;;;5071958;28;20204;-62
2021/01/20 11:48:47;;;;;;;3.07;1.53;;;13.10;75.80;;;;;;5072100;28;20201;-62
2021/01/20 11:51:14;;;;;;;5.57;2.20;;;13.20;75.20;;;;;;5074166;28;20251;-62
2021/01/20 11:53:40;;;;;;;2.33;1.57;;;13.30;75.20;;;;;;5075949;28;20211;-62
2021/01/20 11:56:06;;;;;;;3.73;1.47;;;13.40;74.60;;;;;;5076009;28;20656;-62
2021/01/20 11:58:33;;;;;;;3.73;1.27;;;13.60;74.30;;;;;;5077493;28;20205;-62
2021/01/20 12:01:00;;;;;;;2.40;1.33;;;13.60;74.30;;;;;;5077018;28;20673;-64
2021/01/20 12:03:26;;;;;;;2.10;1.30;;;13.70;73.60;;;;;;5076801;28;20600;-62
2021/01/20 12:05:52;;;;;;;2.60;1.50;;;13.70;73.60;;;;;;5075688;28;20220;-63
2021/01/20 12:08:19;;;;;;;1.87;1.27;;;13.80;73.30;;;;;;5075611;28;20257;-61
2021/01/20 12:10:45;;;;;;;2.43;1.40;;;13.80;73.40;;;;;;5075365;28;20204;-62
2021/01/20 12:13:12;;;;;;;3.30;1.50;;;13.70;73.00;;;;;;5075465;28;20212;-62
2021/01/20 12:15:39;;;;;;;3.30;1.73;;;13.70;73.10;;;;;;5075009;28;20716;-63
2021/01/20 12:18:06;;;;;;;2.50;1.83;;;13.50;72.40;;;;;;5074939;28;20208;-63
2021/01/20 12:20:33;;;;;;;3.27;2.37;;;13.40;72.30;;;;;;5075172;28;20212;-62
2021/01/20 12:22:59;;;;;;;3.53;2.23;;;13.40;72.70;;;;;;5075207;28;20244;-62
2021/01/20 12:25:27;;;;;;;3.77;2.10;;;13.30;73.10;;;;;;5075420;28;20260;-62
2021/01/20 12:27:53;;;;;;;6.43;2.50;;;13.30;73.30;;;;;;5075809;28;20236;-62
2021/01/20 12:30:20;;;;;;;2.77;2.00;;;13.50;73.80;;;;;;5075850;28;20208;-63
2021/01/20 12:32:47;;;;;;;2.30;1.67;;;13.00;73.90;;;;;;5075089;28;20201;-61
2021/01/20 12:35:13;;;;;;;3.30;1.93;;;13.00;73.80;;;;;;5074959;28;20225;-62
2021/01/20 12:37:39;;;;;;;4.50;2.77;;;13.10;74.10;;;;;;5074945;28;20288;-62
2021/01/20 12:40:07;;;;;;;3.00;1.77;;;13.10;74.00;;;;;;5074876;28;20207;-62
2021/01/20 12:42:34;;;;;;;2.67;1.40;;;13.00;73.80;;;;;;5074799;28;20699;-63
2021/01/20 12:45:00;;;;;;;2.27;1.77;;;12.90;74.20;;;;;;5074742;28;20232;-63
2021/01/20 12:47:26;;;;;;;2.80;1.53;;;12.80;74.10;;;;;;5074860;28;20213;-63
2021/01/20 12:49:53;;;;;;;2.57;1.60;;;12.90;74.10;;;;;;5074346;28;20235;-62
2021/01/20 12:52:19;;;;;;;2.63;1.70;;;13.00;74.30;;;;;;5074543;28;20213;-62
2021/01/20 12:54:45;;;;;;;3.47;1.90;;;13.10;74.40;;;;;;5074450;28;20290;-62
2021/01/20 12:57:12;;;;;;;1.80;1.60;;;13.10;74.80;;;;;;5074949;28;20209;-62